sensor_id;sensor_type;location;lat;lon;timestamp;P1;durP1;ratioP1;P2;durP2;ratioP2
56051;SDS011;41919;42.648;23.384;2023-04-24T00:01:26;7.13;;;3.70;;
56051;SDS011;41919;42.648;23.384;2023-04-24T00:03:53;5.13;;;3.65;;
56051;SDS011;41919;42.648;23.384;2023-04-24T00:06:19;7.22;;;3.75;;
56051;SDS011;41919;42.648;23.384;2023-04-24T00:08:45;4.55;;;3.55;;
56051;SDS011;41919;42.648;23.384;2023-04-24T00:11:10;5.57;;;3.75;;
56051;SDS011;41919;42.648;23.384;2023-04-24T00:13:36;6.85;;;3.63;;
56051;SDS011;41919;42.648;23.384;2023-04-24T00:16:02;4.43;;;3.88;;
56051;SDS011;41919;42.648;23.384;2023-04-24T00:18:28;4.80;;;3.92;;
56051;SDS011;41919;42.648;23.384;2023-04-24T00:20:53;8.60;;;4.00;;
56051;SDS011;41919;42.648;23.384;2023-04-24T00:23:18;6.65;;;3.70;;
56051;SDS011;41919;42.648;23.384;2023-04-24T00:25:44;3.60;;;3.30;;
56051;SDS011;41919;42.648;23.384;2023-04-24T00:28:09;7.63;;;5.07;;
56051;SDS011;41919;42.648;23.384;2023-04-24T00:30:35;5.93;;;3.83;;
56051;SDS011;41919;42.648;23.384;2023-04-24T00:33:00;8.63;;;3.70;;
56051;SDS011;41919;42.648;23.384;2023-04-24T00:35:26;6.57;;;3.72;;
56051;SDS011;41919;42.648;23.384;2023-04-24T00:37:51;4.78;;;4.00;;
56051;SDS011;41919;42.648;23.384;2023-04-24T00:40:17;6.00;;;4.05;;
56051;SDS011;41919;42.648;23.384;2023-04-24T00:42:43;9.07;;;4.20;;
56051;SDS011;41919;42.648;23.384;2023-04-24T00:45:09;4.28;;;3.60;;
56051;SDS011;41919;42.648;23.384;2023-04-24T00:47:35;5.30;;;4.10;;
56051;SDS011;41919;42.648;23.384;2023-04-24T00:50:04;6.28;;;4.00;;
56051;SDS011;41919;42.648;23.384;2023-04-24T00:52:31;3.90;;;3.50;;
56051;SDS011;41919;42.648;23.384;2023-04-24T00:54:57;6.15;;;3.65;;
56051;SDS011;41919;42.648;23.384;2023-04-24T00:57:23;4.18;;;3.78;;
56051;SDS011;41919;42.648;23.384;2023-04-24T00:59:50;4.53;;;3.90;;
56051;SDS011;41919;42.648;23.384;2023-04-24T01:02:16;4.93;;;3.83;;
56051;SDS011;41919;42.648;23.384;2023-04-24T01:04:41;5.38;;;4.03;;
56051;SDS011;41919;42.648;23.384;2023-04-24T01:07:07;6.25;;;4.13;;
56051;SDS011;41919;42.648;23.384;2023-04-24T01:09:36;4.15;;;3.72;;
56051;SDS011;41919;42.648;23.384;2023-04-24T01:12:04;6.18;;;4.10;;
56051;SDS011;41919;42.648;23.384;2023-04-24T01:14:30;6.03;;;3.88;;
56051;SDS011;41919;42.648;23.384;2023-04-24T01:16:56;5.47;;;3.97;;
56051;SDS011;41919;42.648;23.384;2023-04-24T01:19:22;9.20;;;4.15;;
56051;SDS011;41919;42.648;23.384;2023-04-24T01:21:48;6.10;;;4.15;;
56051;SDS011;41919;42.648;23.384;2023-04-24T01:24:19;4.60;;;4.18;;
56051;SDS011;41919;42.648;23.384;2023-04-24T01:26:44;6.93;;;4.25;;
56051;SDS011;41919;42.648;23.384;2023-04-24T01:29:11;5.30;;;4.10;;
56051;SDS011;41919;42.648;23.384;2023-04-24T01:31:36;8.82;;;5.05;;
56051;SDS011;41919;42.648;23.384;2023-04-24T01:34:03;6.60;;;4.70;;
56051;SDS011;41919;42.648;23.384;2023-04-24T01:36:29;4.88;;;3.95;;
56051;SDS011;41919;42.648;23.384;2023-04-24T01:38:56;6.25;;;4.00;;
56051;SDS011;41919;42.648;23.384;2023-04-24T01:41:21;7.57;;;4.38;;
56051;SDS011;41919;42.648;23.384;2023-04-24T01:43:48;7.80;;;4.38;;
56051;SDS011;41919;42.648;23.384;2023-04-24T01:46:14;6.50;;;4.60;;
56051;SDS011;41919;42.648;23.384;2023-04-24T01:48:40;6.35;;;4.45;;
56051;SDS011;41919;42.648;23.384;2023-04-24T01:51:06;6.93;;;4.35;;
56051;SDS011;41919;42.648;23.384;2023-04-24T01:53:31;8.27;;;4.35;;
56051;SDS011;41919;42.648;23.384;2023-04-24T01:55:57;5.53;;;4.63;;
56051;SDS011;41919;42.648;23.384;2023-04-24T01:58:23;5.65;;;4.47;;
56051;SDS011;41919;42.648;23.384;2023-04-24T02:00:48;8.95;;;4.80;;
56051;SDS011;41919;42.648;23.384;2023-04-24T02:03:13;7.32;;;4.45;;
56051;SDS011;41919;42.648;23.384;2023-04-24T02:05:39;9.23;;;4.80;;
56051;SDS011;41919;42.648;23.384;2023-04-24T02:08:04;8.43;;;4.53;;
56051;SDS011;41919;42.648;23.384;2023-04-24T02:10:30;8.32;;;5.20;;
56051;SDS011;41919;42.648;23.384;2023-04-24T02:12:55;9.35;;;4.85;;
56051;SDS011;41919;42.648;23.384;2023-04-24T02:15:20;7.35;;;5.30;;
56051;SDS011;41919;42.648;23.384;2023-04-24T02:17:46;7.32;;;5.60;;
56051;SDS011;41919;42.648;23.384;2023-04-24T02:20:11;9.32;;;5.65;;
56051;SDS011;41919;42.648;23.384;2023-04-24T02:22:37;6.15;;;5.03;;
56051;SDS011;41919;42.648;23.384;2023-04-24T02:25:02;7.40;;;4.65;;
56051;SDS011;41919;42.648;23.384;2023-04-24T02:27:28;9.95;;;5.82;;
56051;SDS011;41919;42.648;23.384;2023-04-24T02:29:54;11.15;;;5.10;;
56051;SDS011;41919;42.648;23.384;2023-04-24T02:32:20;8.85;;;5.50;;
56051;SDS011;41919;42.648;23.384;2023-04-24T02:34:45;7.78;;;5.75;;
56051;SDS011;41919;42.648;23.384;2023-04-24T02:37:11;7.78;;;4.90;;
56051;SDS011;41919;42.648;23.384;2023-04-24T02:39:36;8.73;;;5.88;;
56051;SDS011;41919;42.648;23.384;2023-04-24T02:42:01;6.85;;;4.65;;
56051;SDS011;41919;42.648;23.384;2023-04-24T02:44:27;6.13;;;4.85;;
56051;SDS011;41919;42.648;23.384;2023-04-24T02:46:53;6.68;;;4.88;;
56051;SDS011;41919;42.648;23.384;2023-04-24T02:49:18;6.85;;;4.57;;
56051;SDS011;41919;42.648;23.384;2023-04-24T02:51:44;7.60;;;5.13;;
56051;SDS011;41919;42.648;23.384;2023-04-24T02:54:09;8.68;;;5.32;;
56051;SDS011;41919;42.648;23.384;2023-04-24T02:56:35;7.38;;;4.75;;
56051;SDS011;41919;42.648;23.384;2023-04-24T02:59:00;7.20;;;4.75;;
56051;SDS011;41919;42.648;23.384;2023-04-24T03:01:26;8.75;;;4.97;;
56051;SDS011;41919;42.648;23.384;2023-04-24T03:03:51;11.52;;;6.07;;
56051;SDS011;41919;42.648;23.384;2023-04-24T03:06:17;7.78;;;5.32;;
56051;SDS011;41919;42.648;23.384;2023-04-24T03:08:42;9.35;;;5.30;;
56051;SDS011;41919;42.648;23.384;2023-04-24T03:11:07;9.13;;;5.53;;
56051;SDS011;41919;42.648;23.384;2023-04-24T03:13:33;7.40;;;5.65;;
56051;SDS011;41919;42.648;23.384;2023-04-24T03:15:58;10.55;;;5.57;;
56051;SDS011;41919;42.648;23.384;2023-04-24T03:18:24;7.65;;;5.68;;
56051;SDS011;41919;42.648;23.384;2023-04-24T03:20:50;10.15;;;5.97;;
56051;SDS011;41919;42.648;23.384;2023-04-24T03:23:15;9.65;;;5.55;;
56051;SDS011;41919;42.648;23.384;2023-04-24T03:25:41;9.40;;;5.35;;
56051;SDS011;41919;42.648;23.384;2023-04-24T03:28:07;10.13;;;5.47;;
56051;SDS011;41919;42.648;23.384;2023-04-24T03:30:33;10.38;;;5.63;;
56051;SDS011;41919;42.648;23.384;2023-04-24T03:32:59;10.93;;;5.90;;
56051;SDS011;41919;42.648;23.384;2023-04-24T03:35:24;13.15;;;5.90;;
56051;SDS011;41919;42.648;23.384;2023-04-24T03:37:50;9.90;;;6.38;;
56051;SDS011;41919;42.648;23.384;2023-04-24T03:40:15;9.15;;;5.72;;
56051;SDS011;41919;42.648;23.384;2023-04-24T03:42:40;10.27;;;6.18;;
56051;SDS011;41919;42.648;23.384;2023-04-24T03:45:06;9.35;;;6.07;;
56051;SDS011;41919;42.648;23.384;2023-04-24T03:47:32;9.80;;;6.07;;
56051;SDS011;41919;42.648;23.384;2023-04-24T03:49:57;8.80;;;6.43;;
56051;SDS011;41919;42.648;23.384;2023-04-24T03:52:23;13.88;;;6.40;;
56051;SDS011;41919;42.648;23.384;2023-04-24T03:54:48;13.20;;;6.28;;
56051;SDS011;41919;42.648;23.384;2023-04-24T03:57:14;11.82;;;6.40;;
56051;SDS011;41919;42.648;23.384;2023-04-24T03:59:39;10.52;;;5.85;;
56051;SDS011;41919;42.648;23.384;2023-04-24T04:02:05;6.82;;;5.22;;
56051;SDS011;41919;42.648;23.384;2023-04-24T04:04:30;11.15;;;5.90;;
56051;SDS011;41919;42.648;23.384;2023-04-24T04:06:56;8.50;;;5.80;;
56051;SDS011;41919;42.648;23.384;2023-04-24T04:09:21;10.75;;;6.10;;
56051;SDS011;41919;42.648;23.384;2023-04-24T04:11:47;16.88;;;6.60;;
56051;SDS011;41919;42.648;23.384;2023-04-24T04:14:12;8.27;;;5.43;;
56051;SDS011;41919;42.648;23.384;2023-04-24T04:16:38;7.07;;;5.65;;
56051;SDS011;41919;42.648;23.384;2023-04-24T04:19:03;11.23;;;6.10;;
56051;SDS011;41919;42.648;23.384;2023-04-24T04:21:29;8.98;;;6.47;;
56051;SDS011;41919;42.648;23.384;2023-04-24T04:23:56;8.38;;;6.28;;
56051;SDS011;41919;42.648;23.384;2023-04-24T04:26:21;10.95;;;6.40;;
56051;SDS011;41919;42.648;23.384;2023-04-24T04:28:50;10.32;;;5.72;;
56051;SDS011;41919;42.648;23.384;2023-04-24T04:31:16;9.32;;;4.78;;
56051;SDS011;41919;42.648;23.384;2023-04-24T04:33:41;8.70;;;5.03;;
56051;SDS011;41919;42.648;23.384;2023-04-24T04:36:07;7.25;;;4.90;;
56051;SDS011;41919;42.648;23.384;2023-04-24T04:38:33;10.82;;;5.18;;
56051;SDS011;41919;42.648;23.384;2023-04-24T04:41:00;7.90;;;5.53;;
56051;SDS011;41919;42.648;23.384;2023-04-24T04:43:25;8.27;;;4.90;;
56051;SDS011;41919;42.648;23.384;2023-04-24T04:45:51;6.68;;;5.00;;
56051;SDS011;41919;42.648;23.384;2023-04-24T04:48:17;7.70;;;5.05;;
56051;SDS011;41919;42.648;23.384;2023-04-24T04:50:43;10.40;;;5.60;;
56051;SDS011;41919;42.648;23.384;2023-04-24T04:53:09;8.77;;;4.97;;
56051;SDS011;41919;42.648;23.384;2023-04-24T04:55:35;10.23;;;5.60;;
56051;SDS011;41919;42.648;23.384;2023-04-24T04:58:01;8.00;;;5.22;;
56051;SDS011;41919;42.648;23.384;2023-04-24T05:00:26;8.25;;;5.70;;
56051;SDS011;41919;42.648;23.384;2023-04-24T05:02:53;9.80;;;5.97;;
56051;SDS011;41919;42.648;23.384;2023-04-24T05:05:19;7.30;;;5.78;;
56051;SDS011;41919;42.648;23.384;2023-04-24T05:07:44;9.85;;;6.25;;
56051;SDS011;41919;42.648;23.384;2023-04-24T05:10:10;7.50;;;5.53;;
56051;SDS011;41919;42.648;23.384;2023-04-24T05:12:35;7.72;;;5.35;;
56051;SDS011;41919;42.648;23.384;2023-04-24T05:15:01;11.38;;;5.50;;
56051;SDS011;41919;42.648;23.384;2023-04-24T05:17:27;9.05;;;6.18;;
56051;SDS011;41919;42.648;23.384;2023-04-24T05:19:53;8.23;;;5.05;;
56051;SDS011;41919;42.648;23.384;2023-04-24T05:22:18;10.82;;;5.32;;
56051;SDS011;41919;42.648;23.384;2023-04-24T05:24:45;7.82;;;5.38;;
56051;SDS011;41919;42.648;23.384;2023-04-24T05:27:12;7.00;;;4.93;;
56051;SDS011;41919;42.648;23.384;2023-04-24T05:29:37;9.65;;;4.93;;
56051;SDS011;41919;42.648;23.384;2023-04-24T05:32:03;9.05;;;5.10;;
56051;SDS011;41919;42.648;23.384;2023-04-24T05:34:28;9.93;;;5.22;;
56051;SDS011;41919;42.648;23.384;2023-04-24T05:36:53;6.90;;;4.85;;
56051;SDS011;41919;42.648;23.384;2023-04-24T05:39:19;9.23;;;4.60;;
56051;SDS011;41919;42.648;23.384;2023-04-24T05:41:45;9.05;;;5.20;;
56051;SDS011;41919;42.648;23.384;2023-04-24T05:44:10;9.32;;;5.32;;
56051;SDS011;41919;42.648;23.384;2023-04-24T05:46:36;6.10;;;3.95;;
56051;SDS011;41919;42.648;23.384;2023-04-24T05:49:02;9.02;;;4.82;;
56051;SDS011;41919;42.648;23.384;2023-04-24T05:51:27;6.72;;;4.47;;
56051;SDS011;41919;42.648;23.384;2023-04-24T05:53:53;11.15;;;5.45;;
56051;SDS011;41919;42.648;23.384;2023-04-24T05:56:19;8.52;;;5.43;;
56051;SDS011;41919;42.648;23.384;2023-04-24T05:58:45;11.65;;;6.20;;
56051;SDS011;41919;42.648;23.384;2023-04-24T06:01:11;7.18;;;5.45;;
56051;SDS011;41919;42.648;23.384;2023-04-24T06:03:39;13.15;;;5.80;;
56051;SDS011;41919;42.648;23.384;2023-04-24T06:06:05;8.15;;;5.00;;
56051;SDS011;41919;42.648;23.384;2023-04-24T06:08:31;8.73;;;5.40;;
56051;SDS011;41919;42.648;23.384;2023-04-24T06:10:57;8.75;;;5.38;;
56051;SDS011;41919;42.648;23.384;2023-04-24T06:13:23;8.68;;;5.70;;
56051;SDS011;41919;42.648;23.384;2023-04-24T06:15:48;10.43;;;5.63;;
56051;SDS011;41919;42.648;23.384;2023-04-24T06:18:13;8.18;;;5.40;;
56051;SDS011;41919;42.648;23.384;2023-04-24T06:20:40;7.95;;;5.20;;
56051;SDS011;41919;42.648;23.384;2023-04-24T06:23:05;7.07;;;5.45;;
56051;SDS011;41919;42.648;23.384;2023-04-24T06:25:31;6.05;;;5.07;;
56051;SDS011;41919;42.648;23.384;2023-04-24T06:27:56;8.52;;;5.40;;
56051;SDS011;41919;42.648;23.384;2023-04-24T06:30:22;8.18;;;4.78;;
56051;SDS011;41919;42.648;23.384;2023-04-24T06:32:48;9.13;;;5.00;;
56051;SDS011;41919;42.648;23.384;2023-04-24T06:35:13;8.77;;;6.00;;
56051;SDS011;41919;42.648;23.384;2023-04-24T06:37:42;12.52;;;5.72;;
56051;SDS011;41919;42.648;23.384;2023-04-24T06:40:08;7.15;;;6.13;;
56051;SDS011;41919;42.648;23.384;2023-04-24T06:42:34;8.02;;;5.55;;
56051;SDS011;41919;42.648;23.384;2023-04-24T06:45:00;8.68;;;5.82;;
56051;SDS011;41919;42.648;23.384;2023-04-24T06:47:25;10.35;;;5.78;;
56051;SDS011;41919;42.648;23.384;2023-04-24T06:49:51;8.32;;;5.78;;
56051;SDS011;41919;42.648;23.384;2023-04-24T06:52:17;14.10;;;5.80;;
56051;SDS011;41919;42.648;23.384;2023-04-24T06:54:43;8.57;;;5.45;;
56051;SDS011;41919;42.648;23.384;2023-04-24T06:57:09;11.13;;;6.30;;
56051;SDS011;41919;42.648;23.384;2023-04-24T06:59:35;7.28;;;5.60;;
56051;SDS011;41919;42.648;23.384;2023-04-24T07:02:01;8.35;;;5.82;;
56051;SDS011;41919;42.648;23.384;2023-04-24T07:04:26;9.25;;;5.88;;
56051;SDS011;41919;42.648;23.384;2023-04-24T07:06:53;8.02;;;6.07;;
56051;SDS011;41919;42.648;23.384;2023-04-24T07:09:22;10.48;;;5.95;;
56051;SDS011;41919;42.648;23.384;2023-04-24T07:11:49;9.18;;;6.00;;
56051;SDS011;41919;42.648;23.384;2023-04-24T07:14:15;7.43;;;6.25;;
56051;SDS011;41919;42.648;23.384;2023-04-24T07:16:40;8.38;;;6.30;;
56051;SDS011;41919;42.648;23.384;2023-04-24T07:19:06;6.72;;;5.90;;
56051;SDS011;41919;42.648;23.384;2023-04-24T07:21:32;8.77;;;6.10;;
56051;SDS011;41919;42.648;23.384;2023-04-24T07:24:00;7.30;;;6.35;;
56051;SDS011;41919;42.648;23.384;2023-04-24T07:26:27;8.27;;;6.10;;
56051;SDS011;41919;42.648;23.384;2023-04-24T07:28:56;10.38;;;6.07;;
56051;SDS011;41919;42.648;23.384;2023-04-24T07:31:22;6.65;;;5.72;;
56051;SDS011;41919;42.648;23.384;2023-04-24T07:33:47;10.20;;;5.93;;
56051;SDS011;41919;42.648;23.384;2023-04-24T07:36:13;8.63;;;5.70;;
56051;SDS011;41919;42.648;23.384;2023-04-24T07:38:43;9.30;;;5.80;;
56051;SDS011;41919;42.648;23.384;2023-04-24T07:41:09;11.15;;;5.75;;
56051;SDS011;41919;42.648;23.384;2023-04-24T07:43:35;9.98;;;5.38;;
56051;SDS011;41919;42.648;23.384;2023-04-24T07:46:00;7.05;;;5.00;;
56051;SDS011;41919;42.648;23.384;2023-04-24T07:48:26;8.10;;;5.22;;
56051;SDS011;41919;42.648;23.384;2023-04-24T07:50:52;5.65;;;4.45;;
56051;SDS011;41919;42.648;23.384;2023-04-24T07:53:17;6.25;;;4.43;;
56051;SDS011;41919;42.648;23.384;2023-04-24T07:55:43;4.93;;;4.30;;
56051;SDS011;41919;42.648;23.384;2023-04-24T07:58:08;5.97;;;4.80;;
56051;SDS011;41919;42.648;23.384;2023-04-24T08:00:34;8.95;;;5.32;;
56051;SDS011;41919;42.648;23.384;2023-04-24T08:02:59;10.55;;;5.95;;
56051;SDS011;41919;42.648;23.384;2023-04-24T08:05:25;11.98;;;5.47;;
56051;SDS011;41919;42.648;23.384;2023-04-24T08:07:52;9.32;;;6.18;;
56051;SDS011;41919;42.648;23.384;2023-04-24T08:10:17;8.70;;;6.07;;
56051;SDS011;41919;42.648;23.384;2023-04-24T08:12:43;12.10;;;7.15;;
56051;SDS011;41919;42.648;23.384;2023-04-24T08:15:08;11.18;;;5.97;;
56051;SDS011;41919;42.648;23.384;2023-04-24T08:17:34;8.13;;;5.55;;
56051;SDS011;41919;42.648;23.384;2023-04-24T08:20:00;5.93;;;4.85;;
56051;SDS011;41919;42.648;23.384;2023-04-24T08:22:29;12.02;;;4.95;;
56051;SDS011;41919;42.648;23.384;2023-04-24T08:24:55;7.43;;;4.85;;
56051;SDS011;41919;42.648;23.384;2023-04-24T08:27:22;9.90;;;4.95;;
56051;SDS011;41919;42.648;23.384;2023-04-24T08:29:52;5.45;;;4.40;;
56051;SDS011;41919;42.648;23.384;2023-04-24T08:32:18;6.20;;;4.75;;
56051;SDS011;41919;42.648;23.384;2023-04-24T08:34:43;5.78;;;4.68;;
56051;SDS011;41919;42.648;23.384;2023-04-24T08:37:09;6.20;;;4.53;;
56051;SDS011;41919;42.648;23.384;2023-04-24T08:39:34;8.70;;;5.45;;
56051;SDS011;41919;42.648;23.384;2023-04-24T08:42:00;10.35;;;5.53;;
56051;SDS011;41919;42.648;23.384;2023-04-24T08:44:31;5.65;;;4.90;;
56051;SDS011;41919;42.648;23.384;2023-04-24T08:46:57;6.40;;;4.60;;
56051;SDS011;41919;42.648;23.384;2023-04-24T08:49:23;7.35;;;4.32;;
56051;SDS011;41919;42.648;23.384;2023-04-24T08:51:49;10.48;;;4.88;;
56051;SDS011;41919;42.648;23.384;2023-04-24T08:54:17;7.45;;;4.50;;
56051;SDS011;41919;42.648;23.384;2023-04-24T08:56:44;5.63;;;4.15;;
56051;SDS011;41919;42.648;23.384;2023-04-24T08:59:10;9.88;;;4.53;;
56051;SDS011;41919;42.648;23.384;2023-04-24T09:01:37;6.38;;;4.53;;
56051;SDS011;41919;42.648;23.384;2023-04-24T09:04:04;7.43;;;3.97;;
56051;SDS011;41919;42.648;23.384;2023-04-24T09:06:32;4.28;;;3.83;;
56051;SDS011;41919;42.648;23.384;2023-04-24T09:09:00;6.10;;;3.88;;
56051;SDS011;41919;42.648;23.384;2023-04-24T09:11:26;6.00;;;4.53;;
56051;SDS011;41919;42.648;23.384;2023-04-24T09:13:53;6.97;;;4.60;;
56051;SDS011;41919;42.648;23.384;2023-04-24T09:16:20;5.75;;;4.20;;
56051;SDS011;41919;42.648;23.384;2023-04-24T09:18:45;6.38;;;4.10;;
56051;SDS011;41919;42.648;23.384;2023-04-24T09:21:11;4.60;;;4.15;;
56051;SDS011;41919;42.648;23.384;2023-04-24T09:23:37;5.38;;;4.05;;
56051;SDS011;41919;42.648;23.384;2023-04-24T09:26:03;5.75;;;4.05;;
56051;SDS011;41919;42.648;23.384;2023-04-24T09:28:36;4.65;;;4.15;;
56051;SDS011;41919;42.648;23.384;2023-04-24T09:33:38;6.57;;;4.18;;
56051;SDS011;41919;42.648;23.384;2023-04-24T09:36:03;5.78;;;4.28;;
56051;SDS011;41919;42.648;23.384;2023-04-24T09:38:33;5.28;;;4.20;;
56051;SDS011;41919;42.648;23.384;2023-04-24T09:41:02;7.73;;;4.30;;
56051;SDS011;41919;42.648;23.384;2023-04-24T09:43:30;6.85;;;4.13;;
56051;SDS011;41919;42.648;23.384;2023-04-24T09:45:56;5.90;;;4.00;;
56051;SDS011;41919;42.648;23.384;2023-04-24T09:48:30;5.82;;;4.25;;
56051;SDS011;41919;42.648;23.384;2023-04-24T09:50:56;7.22;;;3.88;;
56051;SDS011;41919;42.648;23.384;2023-04-24T09:53:25;4.57;;;3.88;;
56051;SDS011;41919;42.648;23.384;2023-04-24T09:55:51;4.38;;;3.95;;
56051;SDS011;41919;42.648;23.384;2023-04-24T09:58:18;6.75;;;4.00;;
56051;SDS011;41919;42.648;23.384;2023-04-24T10:00:49;4.47;;;3.83;;
56051;SDS011;41919;42.648;23.384;2023-04-24T10:03:18;4.60;;;3.70;;
56051;SDS011;41919;42.648;23.384;2023-04-24T10:05:44;6.05;;;3.50;;
56051;SDS011;41919;42.648;23.384;2023-04-24T10:08:12;7.28;;;4.05;;
56051;SDS011;41919;42.648;23.384;2023-04-24T10:10:38;4.80;;;3.58;;
56051;SDS011;41919;42.648;23.384;2023-04-24T10:13:06;4.57;;;3.53;;
56051;SDS011;41919;42.648;23.384;2023-04-24T10:15:32;7.20;;;4.50;;
56051;SDS011;41919;42.648;23.384;2023-04-24T10:17:58;7.15;;;4.50;;
56051;SDS011;41919;42.648;23.384;2023-04-24T10:20:25;7.43;;;4.13;;
56051;SDS011;41919;42.648;23.384;2023-04-24T10:22:54;7.72;;;4.22;;
56051;SDS011;41919;42.648;23.384;2023-04-24T10:25:21;14.50;;;5.07;;
56051;SDS011;41919;42.648;23.384;2023-04-24T10:27:49;4.57;;;4.07;;
56051;SDS011;41919;42.648;23.384;2023-04-24T10:30:15;7.65;;;3.58;;
56051;SDS011;41919;42.648;23.384;2023-04-24T10:32:42;8.52;;;3.85;;
56051;SDS011;41919;42.648;23.384;2023-04-24T10:35:08;3.75;;;3.40;;
56051;SDS011;41919;42.648;23.384;2023-04-24T10:37:35;5.30;;;3.58;;
56051;SDS011;41919;42.648;23.384;2023-04-24T10:40:04;5.97;;;3.92;;
56051;SDS011;41919;42.648;23.384;2023-04-24T10:42:30;4.28;;;3.78;;
56051;SDS011;41919;42.648;23.384;2023-04-24T10:44:56;5.70;;;3.78;;
56051;SDS011;41919;42.648;23.384;2023-04-24T10:47:23;5.20;;;3.67;;
56051;SDS011;41919;42.648;23.384;2023-04-24T10:49:50;5.28;;;3.65;;
56051;SDS011;41919;42.648;23.384;2023-04-24T10:52:16;3.92;;;3.45;;
56051;SDS011;41919;42.648;23.384;2023-04-24T10:54:45;5.60;;;3.70;;
56051;SDS011;41919;42.648;23.384;2023-04-24T10:59:47;5.90;;;4.00;;
56051;SDS011;41919;42.648;23.384;2023-04-24T11:02:14;7.70;;;3.58;;
56051;SDS011;41919;42.648;23.384;2023-04-24T11:04:40;4.80;;;4.05;;
56051;SDS011;41919;42.648;23.384;2023-04-24T11:07:08;4.60;;;3.80;;
56051;SDS011;41919;42.648;23.384;2023-04-24T11:09:35;5.30;;;3.70;;
56051;SDS011;41919;42.648;23.384;2023-04-24T11:12:08;5.03;;;3.97;;
56051;SDS011;41919;42.648;23.384;2023-04-24T11:15:09;6.45;;;4.05;;
56051;SDS011;41919;42.648;23.384;2023-04-24T11:17:37;4.15;;;3.35;;
56051;SDS011;41919;42.648;23.384;2023-04-24T11:20:05;6.40;;;3.50;;
56051;SDS011;41919;42.648;23.384;2023-04-24T11:22:33;5.80;;;3.55;;
56051;SDS011;41919;42.648;23.384;2023-04-24T11:25:00;4.10;;;3.50;;
56051;SDS011;41919;42.648;23.384;2023-04-24T11:27:33;6.45;;;4.15;;
56051;SDS011;41919;42.648;23.384;2023-04-24T11:30:05;3.70;;;3.28;;
56051;SDS011;41919;42.648;23.384;2023-04-24T11:32:41;4.75;;;3.97;;
56051;SDS011;41919;42.648;23.384;2023-04-24T11:37:43;3.70;;;3.17;;
56051;SDS011;41919;42.648;23.384;2023-04-24T11:40:14;4.78;;;3.15;;
56051;SDS011;41919;42.648;23.384;2023-04-24T11:42:44;11.60;;;6.00;;
56051;SDS011;41919;42.648;23.384;2023-04-24T11:45:15;5.90;;;3.70;;
56051;SDS011;41919;42.648;23.384;2023-04-24T11:47:41;3.53;;;3.20;;
56051;SDS011;41919;42.648;23.384;2023-04-24T11:50:07;3.70;;;3.17;;
56051;SDS011;41919;42.648;23.384;2023-04-24T11:52:37;4.47;;;3.30;;
56051;SDS011;41919;42.648;23.384;2023-04-24T11:55:06;6.30;;;3.08;;
56051;SDS011;41919;42.648;23.384;2023-04-24T11:57:33;3.90;;;3.38;;
56051;SDS011;41919;42.648;23.384;2023-04-24T12:00:03;3.53;;;3.22;;
56051;SDS011;41919;42.648;23.384;2023-04-24T12:02:30;4.40;;;3.17;;
56051;SDS011;41919;42.648;23.384;2023-04-24T12:04:56;2.80;;;2.60;;
56051;SDS011;41919;42.648;23.384;2023-04-24T12:07:22;2.85;;;2.55;;
56051;SDS011;41919;42.648;23.384;2023-04-24T12:09:58;3.75;;;2.95;;
56051;SDS011;41919;42.648;23.384;2023-04-24T12:12:25;5.63;;;3.00;;
56051;SDS011;41919;42.648;23.384;2023-04-24T12:14:53;5.18;;;3.53;;
56051;SDS011;41919;42.648;23.384;2023-04-24T12:17:29;4.15;;;3.20;;
56051;SDS011;41919;42.648;23.384;2023-04-24T12:22:26;10.98;;;6.20;;
56051;SDS011;41919;42.648;23.384;2023-04-24T12:27:25;3.25;;;2.95;;
56051;SDS011;41919;42.648;23.384;2023-04-24T12:30:00;4.57;;;3.30;;
56051;SDS011;41919;42.648;23.384;2023-04-24T12:32:28;4.13;;;2.88;;
56051;SDS011;41919;42.648;23.384;2023-04-24T12:34:53;3.15;;;2.92;;
56051;SDS011;41919;42.648;23.384;2023-04-24T12:37:20;3.25;;;3.00;;
56051;SDS011;41919;42.648;23.384;2023-04-24T12:39:58;3.20;;;2.90;;
56051;SDS011;41919;42.648;23.384;2023-04-24T12:42:29;3.08;;;2.13;;
56051;SDS011;41919;42.648;23.384;2023-04-24T12:45:05;2.13;;;1.88;;
56051;SDS011;41919;42.648;23.384;2023-04-24T12:47:33;4.80;;;2.67;;
56051;SDS011;41919;42.648;23.384;2023-04-24T12:49:59;5.47;;;2.63;;
56051;SDS011;41919;42.648;23.384;2023-04-24T12:52:26;3.28;;;2.97;;
56051;SDS011;41919;42.648;23.384;2023-04-24T12:54:54;3.75;;;2.92;;
56051;SDS011;41919;42.648;23.384;2023-04-24T12:57:21;5.40;;;3.63;;
56051;SDS011;41919;42.648;23.384;2023-04-24T12:59:47;2.80;;;2.55;;
56051;SDS011;41919;42.648;23.384;2023-04-24T13:02:13;14.57;;;8.07;;
56051;SDS011;41919;42.648;23.384;2023-04-24T13:04:39;4.55;;;3.13;;
56051;SDS011;41919;42.648;23.384;2023-04-24T13:07:05;3.47;;;2.72;;
56051;SDS011;41919;42.648;23.384;2023-04-24T13:09:30;3.28;;;2.85;;
56051;SDS011;41919;42.648;23.384;2023-04-24T13:11:56;3.22;;;2.92;;
56051;SDS011;41919;42.648;23.384;2023-04-24T13:14:22;3.90;;;3.47;;
56051;SDS011;41919;42.648;23.384;2023-04-24T13:16:47;4.75;;;3.40;;
56051;SDS011;41919;42.648;23.384;2023-04-24T13:19:13;4.60;;;3.10;;
56051;SDS011;41919;42.648;23.384;2023-04-24T13:21:38;3.42;;;3.03;;
56051;SDS011;41919;42.648;23.384;2023-04-24T13:24:04;3.90;;;3.50;;
56051;SDS011;41919;42.648;23.384;2023-04-24T13:26:30;3.35;;;2.90;;
56051;SDS011;41919;42.648;23.384;2023-04-24T13:28:56;4.65;;;3.22;;
56051;SDS011;41919;42.648;23.384;2023-04-24T13:31:21;5.35;;;3.70;;
56051;SDS011;41919;42.648;23.384;2023-04-24T13:33:47;4.65;;;3.70;;
56051;SDS011;41919;42.648;23.384;2023-04-24T13:36:13;4.05;;;3.70;;
56051;SDS011;41919;42.648;23.384;2023-04-24T13:38:38;4.68;;;3.55;;
56051;SDS011;41919;42.648;23.384;2023-04-24T13:41:04;4.28;;;3.47;;
56051;SDS011;41919;42.648;23.384;2023-04-24T13:43:29;4.35;;;3.50;;
56051;SDS011;41919;42.648;23.384;2023-04-24T13:45:55;5.50;;;3.47;;
56051;SDS011;41919;42.648;23.384;2023-04-24T13:48:20;4.50;;;3.58;;
56051;SDS011;41919;42.648;23.384;2023-04-24T13:50:46;4.60;;;3.40;;
56051;SDS011;41919;42.648;23.384;2023-04-24T13:53:13;6.80;;;4.93;;
56051;SDS011;41919;42.648;23.384;2023-04-24T13:55:39;4.05;;;3.22;;
56051;SDS011;41919;42.648;23.384;2023-04-24T13:58:05;5.93;;;3.33;;
56051;SDS011;41919;42.648;23.384;2023-04-24T14:00:31;3.50;;;3.17;;
56051;SDS011;41919;42.648;23.384;2023-04-24T14:02:57;6.97;;;3.33;;
56051;SDS011;41919;42.648;23.384;2023-04-24T14:05:22;6.55;;;3.58;;
56051;SDS011;41919;42.648;23.384;2023-04-24T14:07:48;4.30;;;3.90;;
56051;SDS011;41919;42.648;23.384;2023-04-24T14:10:13;3.97;;;3.53;;
56051;SDS011;41919;42.648;23.384;2023-04-24T14:12:39;4.85;;;3.40;;
56051;SDS011;41919;42.648;23.384;2023-04-24T14:15:04;3.17;;;2.88;;
56051;SDS011;41919;42.648;23.384;2023-04-24T14:17:30;3.38;;;3.08;;
56051;SDS011;41919;42.648;23.384;2023-04-24T14:19:56;4.63;;;2.83;;
56051;SDS011;41919;42.648;23.384;2023-04-24T14:22:22;2.85;;;2.10;;
56051;SDS011;41919;42.648;23.384;2023-04-24T14:24:47;3.60;;;2.70;;
56051;SDS011;41919;42.648;23.384;2023-04-24T14:27:13;3.10;;;2.80;;
56051;SDS011;41919;42.648;23.384;2023-04-24T14:29:38;5.07;;;2.92;;
56051;SDS011;41919;42.648;23.384;2023-04-24T14:32:03;3.30;;;3.00;;
56051;SDS011;41919;42.648;23.384;2023-04-24T14:34:29;3.72;;;2.42;;
56051;SDS011;41919;42.648;23.384;2023-04-24T14:36:54;4.55;;;2.95;;
56051;SDS011;41919;42.648;23.384;2023-04-24T14:39:20;4.75;;;2.60;;
56051;SDS011;41919;42.648;23.384;2023-04-24T14:41:45;2.63;;;2.40;;